sensor_id;sensor_type;location;lat;lon;timestamp;pressure;altitude;pressure_sealevel;temperature
68440;BMP180;55421;51.600;5.718;2023-08-24T00:01:52;225068.20;;;18.90
68440;BMP180;55421;51.600;5.718;2023-08-24T00:04:18;225055.80;;;18.90
68440;BMP180;55421;51.600;5.718;2023-08-24T00:06:45;225030.59;;;18.80
68440;BMP180;55421;51.600;5.718;2023-08-24T00:09:11;225000.41;;;18.80
68440;BMP180;55421;51.600;5.718;2023-08-24T00:11:38;225006.00;;;18.80
68440;BMP180;55421;51.600;5.718;2023-08-24T00:14:04;225003.20;;;18.80
68440;BMP180;55421;51.600;5.718;2023-08-24T00:16:31;224999.20;;;18.80
68440;BMP180;55421;51.600;5.718;2023-08-24T00:18:58;224992.41;;;18.80
68440;BMP180;55421;51.600;5.718;2023-08-24T00:21:24;224981.20;;;18.72
68440;BMP180;55421;51.600;5.718;2023-08-24T00:23:51;224968.00;;;18.70
68440;BMP180;55421;51.600;5.718;2023-08-24T00:26:18;224947.20;;;18.70
68440;BMP180;55421;51.600;5.718;2023-08-24T00:28:46;224934.80;;;18.68
68440;BMP180;55421;51.600;5.718;2023-08-24T00:31:15;224922.41;;;18.66
68440;BMP180;55421;51.600;5.718;2023-08-24T00:33:42;224917.00;;;18.60
68440;BMP180;55421;51.600;5.718;2023-08-24T00:36:09;224907.80;;;18.60
68440;BMP180;55421;51.600;5.718;2023-08-24T00:38:36;224899.80;;;18.60
68440;BMP180;55421;51.600;5.718;2023-08-24T00:41:03;224901.00;;;18.60
68440;BMP180;55421;51.600;5.718;2023-08-24T00:43:30;224908.20;;;18.60
68440;BMP180;55421;51.600;5.718;2023-08-24T00:46:01;224896.59;;;18.60
68440;BMP180;55421;51.600;5.718;2023-08-24T00:48:29;224877.41;;;18.60
68440;BMP180;55421;51.600;5.718;2023-08-24T00:50:59;224880.59;;;18.60
68440;BMP180;55421;51.600;5.718;2023-08-24T00:53:28;224877.41;;;18.60
68440;BMP180;55421;51.600;5.718;2023-08-24T00:55:55;224877.41;;;18.60
68440;BMP180;55421;51.600;5.718;2023-08-24T00:58:22;224865.00;;;18.58
68440;BMP180;55421;51.600;5.718;2023-08-24T01:00:52;224877.41;;;18.60
68440;BMP180;55421;51.600;5.718;2023-08-24T01:03:22;224887.00;;;18.60
68440;BMP180;55421;51.600;5.718;2023-08-24T01:05:51;224887.00;;;18.60
68440;BMP180;55421;51.600;5.718;2023-08-24T01:08:18;224879.00;;;18.60
68440;BMP180;55421;51.600;5.718;2023-08-24T01:10:59;224863.80;;;18.56
68440;BMP180;55421;51.600;5.718;2023-08-24T01:14:16;224843.41;;;18.50
68440;BMP180;55421;51.600;5.718;2023-08-24T01:16:47;224819.59;;;18.48
68440;BMP180;55421;51.600;5.718;2023-08-24T01:19:45;224811.59;;;18.44
68440;BMP180;55421;51.600;5.718;2023-08-24T01:22:32;224819.59;;;18.50
68440;BMP180;55421;51.600;5.718;2023-08-24T01:25:29;224822.80;;;18.48
68440;BMP180;55421;51.600;5.718;2023-08-24T01:28:00;224810.00;;;18.40
68440;BMP180;55421;51.600;5.718;2023-08-24T01:30:29;224790.80;;;18.40
68440;BMP180;55421;51.600;5.718;2023-08-24T01:32:57;224777.20;;;18.40
68440;BMP180;55421;51.600;5.718;2023-08-24T01:35:23;224743.20;;;18.30
68440;BMP180;55421;51.600;5.718;2023-08-24T01:37:50;224702.20;;;18.30
68440;BMP180;55421;51.600;5.718;2023-08-24T01:40:26;224707.80;;;18.28
68440;BMP180;55421;51.600;5.718;2023-08-24T01:43:03;224718.41;;;18.30
68440;BMP180;55421;51.600;5.718;2023-08-24T01:45:32;224718.20;;;18.30
68440;BMP180;55421;51.600;5.718;2023-08-24T01:48:05;224710.80;;;18.30
68440;BMP180;55421;51.600;5.718;2023-08-24T01:50:33;224703.41;;;18.24
68440;BMP180;55421;51.600;5.718;2023-08-24T01:53:00;224689.00;;;18.20
68440;BMP180;55421;51.600;5.718;2023-08-24T01:55:27;224682.59;;;18.20
68440;BMP180;55421;51.600;5.718;2023-08-24T01:57:56;224692.20;;;18.20
68440;BMP180;55421;51.600;5.718;2023-08-24T02:00:23;224699.80;;;18.22
68440;BMP180;55421;51.600;5.718;2023-08-24T02:02:49;224706.20;;;18.30
68440;BMP180;55421;51.600;5.718;2023-08-24T02:05:16;224707.80;;;18.30
68440;BMP180;55421;51.600;5.718;2023-08-24T02:07:43;224712.41;;;18.30
68440;BMP180;55421;51.600;5.718;2023-08-24T02:10:09;224715.41;;;18.30
68440;BMP180;55421;51.600;5.718;2023-08-24T02:12:36;224717.00;;;18.30
68440;BMP180;55421;51.600;5.718;2023-08-24T02:15:03;224711.00;;;18.30
68440;BMP180;55421;51.600;5.718;2023-08-24T02:17:30;224703.41;;;18.30
68440;BMP180;55421;51.600;5.718;2023-08-24T02:19:56;224699.80;;;18.22
68440;BMP180;55421;51.600;5.718;2023-08-24T02:22:22;224693.41;;;18.20
68440;BMP180;55421;51.600;5.718;2023-08-24T02:24:49;224690.20;;;18.20
68440;BMP180;55421;51.600;5.718;2023-08-24T02:27:15;224687.41;;;18.20
68440;BMP180;55421;51.600;5.718;2023-08-24T02:29:42;224698.20;;;18.20
68440;BMP180;55421;51.600;5.718;2023-08-24T02:32:08;224702.20;;;18.30
68440;BMP180;55421;51.600;5.718;2023-08-24T02:34:35;224706.20;;;18.30
68440;BMP180;55421;51.600;5.718;2023-08-24T02:37:01;224702.20;;;18.24
68440;BMP180;55421;51.600;5.718;2023-08-24T02:39:28;224689.00;;;18.20
68440;BMP180;55421;51.600;5.718;2023-08-24T02:41:55;224690.59;;;18.20
68440;BMP180;55421;51.600;5.718;2023-08-24T02:44:21;224687.41;;;18.20
68440;BMP180;55421;51.600;5.718;2023-08-24T02:46:48;224685.80;;;18.20
68440;BMP180;55421;51.600;5.718;2023-08-24T02:49:15;224685.80;;;18.20
68440;BMP180;55421;51.600;5.718;2023-08-24T02:51:41;224679.41;;;18.20
68440;BMP180;55421;51.600;5.718;2023-08-24T02:54:08;224673.41;;;18.20
68440;BMP180;55421;51.600;5.718;2023-08-24T02:56:34;224679.80;;;18.20
68440;BMP180;55421;51.600;5.718;2023-08-24T02:59:01;224681.41;;;18.20
68440;BMP180;55421;51.600;5.718;2023-08-24T03:01:27;224684.20;;;18.20
68440;BMP180;55421;51.600;5.718;2023-08-24T03:03:54;224690.59;;;18.20
68440;BMP180;55421;51.600;5.718;2023-08-24T03:06:21;224693.80;;;18.20
68440;BMP180;55421;51.600;5.718;2023-08-24T03:09:00;224690.59;;;18.20
68440;BMP180;55421;51.600;5.718;2023-08-24T03:11:30;224690.59;;;18.20
68440;BMP180;55421;51.600;5.718;2023-08-24T03:13:56;224684.20;;;18.20
68440;BMP180;55421;51.600;5.718;2023-08-24T03:16:23;224664.20;;;18.20
68440;BMP180;55421;51.600;5.718;2023-08-24T03:18:49;224640.41;;;18.20
68440;BMP180;55421;51.600;5.718;2023-08-24T03:21:16;224624.80;;;18.10
68440;BMP180;55421;51.600;5.718;2023-08-24T03:23:42;224603.20;;;18.10
68440;BMP180;55421;51.600;5.718;2023-08-24T03:26:08;224579.20;;;18.00
68440;BMP180;55421;51.600;5.718;2023-08-24T03:28:35;224554.20;;;18.00
68440;BMP180;55421;51.600;5.718;2023-08-24T03:31:01;224529.41;;;18.00
68440;BMP180;55421;51.600;5.718;2023-08-24T03:33:28;224517.00;;;17.90
68440;BMP180;55421;51.600;5.718;2023-08-24T03:35:55;224501.00;;;17.90
68440;BMP180;55421;51.600;5.718;2023-08-24T03:38:21;224483.41;;;17.90
68440;BMP180;55421;51.600;5.718;2023-08-24T03:40:47;224475.80;;;17.90
68440;BMP180;55421;51.600;5.718;2023-08-24T03:43:14;224477.00;;;17.90
68440;BMP180;55421;51.600;5.718;2023-08-24T03:45:42;224478.59;;;17.90
68440;BMP180;55421;51.600;5.718;2023-08-24T03:48:09;224485.00;;;17.90
68440;BMP180;55421;51.600;5.718;2023-08-24T03:50:35;224491.41;;;17.90
68440;BMP180;55421;51.600;5.718;2023-08-24T03:53:03;224504.20;;;17.90
68440;BMP180;55421;51.600;5.718;2023-08-24T03:55:29;224510.20;;;17.90
68440;BMP180;55421;51.600;5.718;2023-08-24T03:57:56;224513.00;;;17.90
68440;BMP180;55421;51.600;5.718;2023-08-24T04:00:23;224515.80;;;17.90
68440;BMP180;55421;51.600;5.718;2023-08-24T04:02:49;224515.80;;;17.92
68440;BMP180;55421;51.600;5.718;2023-08-24T04:05:16;224521.41;;;17.96
68440;BMP180;55421;51.600;5.718;2023-08-24T04:07:43;224524.59;;;17.94
68440;BMP180;55421;51.600;5.718;2023-08-24T04:10:11;224529.41;;;18.00
68440;BMP180;55421;51.600;5.718;2023-08-24T04:12:38;224527.80;;;18.00
68440;BMP180;55421;51.600;5.718;2023-08-24T04:15:05;224526.20;;;17.96
68440;BMP180;55421;51.600;5.718;2023-08-24T04:17:32;224524.59;;;17.94
68440;BMP180;55421;51.600;5.718;2023-08-24T04:19:58;224521.41;;;17.90
68440;BMP180;55421;51.600;5.718;2023-08-24T04:22:25;224523.00;;;17.92
68440;BMP180;55421;51.600;5.718;2023-08-24T04:24:51;224521.41;;;17.92
68440;BMP180;55421;51.600;5.718;2023-08-24T04:27:18;224521.41;;;17.94
68440;BMP180;55421;51.600;5.718;2023-08-24T04:29:45;224514.20;;;17.90
68440;BMP180;55421;51.600;5.718;2023-08-24T04:32:11;224511.41;;;17.90
68440;BMP180;55421;51.600;5.718;2023-08-24T04:34:38;224510.20;;;17.90
68440;BMP180;55421;51.600;5.718;2023-08-24T04:37:06;224510.20;;;17.90
68440;BMP180;55421;51.600;5.718;2023-08-24T04:39:33;224505.80;;;17.90
68440;BMP180;55421;51.600;5.718;2023-08-24T04:41:59;224510.20;;;17.90
68440;BMP180;55421;51.600;5.718;2023-08-24T04:44:26;224504.20;;;17.90
68440;BMP180;55421;51.600;5.718;2023-08-24T04:46:52;224507.00;;;17.90
68440;BMP180;55421;51.600;5.718;2023-08-24T04:49:19;224496.20;;;17.90
68440;BMP180;55421;51.600;5.718;2023-08-24T04:51:46;224491.41;;;17.90
68440;BMP180;55421;51.600;5.718;2023-08-24T04:54:12;224485.00;;;17.90
68440;BMP180;55421;51.600;5.718;2023-08-24T04:56:39;224485.00;;;17.90
68440;BMP180;55421;51.600;5.718;2023-08-24T04:59:05;224485.00;;;17.90
68440;BMP180;55421;51.600;5.718;2023-08-24T05:01:35;224480.20;;;17.90
68440;BMP180;55421;51.600;5.718;2023-08-24T05:04:03;224478.59;;;17.90
68440;BMP180;55421;51.600;5.718;2023-08-24T05:06:29;224475.41;;;17.90
68440;BMP180;55421;51.600;5.718;2023-08-24T05:08:56;224481.80;;;17.90
68440;BMP180;55421;51.600;5.718;2023-08-24T05:11:26;224489.80;;;17.90
68440;BMP180;55421;51.600;5.718;2023-08-24T05:13:53;224494.59;;;17.90
68440;BMP180;55421;51.600;5.718;2023-08-24T05:16:19;224502.59;;;17.90
68440;BMP180;55421;51.600;5.718;2023-08-24T05:18:46;224504.20;;;17.90
68440;BMP180;55421;51.600;5.718;2023-08-24T05:21:12;224507.00;;;17.90
68440;BMP180;55421;51.600;5.718;2023-08-24T05:23:39;224509.00;;;17.90
68440;BMP180;55421;51.600;5.718;2023-08-24T05:26:06;224524.59;;;18.00
68440;BMP180;55421;51.600;5.718;2023-08-24T05:28:32;224552.00;;;18.00
68440;BMP180;55421;51.600;5.718;2023-08-24T05:30:59;224572.80;;;18.00
68440;BMP180;55421;51.600;5.718;2023-08-24T05:33:26;224612.41;;;18.10
68440;BMP180;55421;51.600;5.718;2023-08-24T05:35:53;224642.80;;;18.20
68440;BMP180;55421;51.600;5.718;2023-08-24T05:38:19;224693.80;;;18.20
68440;BMP180;55421;51.600;5.718;2023-08-24T05:40:49;224729.20;;;18.30
68440;BMP180;55421;51.600;5.718;2023-08-24T05:43:16;224768.80;;;18.40
68440;BMP180;55421;51.600;5.718;2023-08-24T05:45:42;224802.00;;;18.40
68440;BMP180;55421;51.600;5.718;2023-08-24T05:48:11;224832.00;;;18.50
68440;BMP180;55421;51.600;5.718;2023-08-24T05:50:46;224868.20;;;18.58
68440;BMP180;55421;51.600;5.718;2023-08-24T05:53:13;224900.59;;;18.60
68440;BMP180;55421;51.600;5.718;2023-08-24T05:55:40;224944.00;;;18.70
68440;BMP180;55421;51.600;5.718;2023-08-24T05:58:08;224971.20;;;18.70
68440;BMP180;55421;51.600;5.718;2023-08-24T06:00:34;224994.80;;;18.80
68440;BMP180;55421;51.600;5.718;2023-08-24T06:03:01;225023.59;;;18.80
68440;BMP180;55421;51.600;5.718;2023-08-24T06:05:30;225052.59;;;18.90
68440;BMP180;55421;51.600;5.718;2023-08-24T06:07:57;225079.41;;;18.90
68440;BMP180;55421;51.600;5.718;2023-08-24T06:10:24;225111.41;;;19.00
68440;BMP180;55421;51.600;5.718;2023-08-24T06:12:52;225159.00;;;19.10
68440;BMP180;55421;51.600;5.718;2023-08-24T06:15:19;225210.59;;;19.16
68440;BMP180;55421;51.600;5.718;2023-08-24T06:17:46;225251.41;;;19.20
68440;BMP180;55421;51.600;5.718;2023-08-24T06:20:14;225277.41;;;19.30
68440;BMP180;55421;51.600;5.718;2023-08-24T06:22:41;225299.80;;;19.30
68440;BMP180;55421;51.600;5.718;2023-08-24T06:25:08;225336.41;;;19.40
68440;BMP180;55421;51.600;5.718;2023-08-24T06:27:35;225339.59;;;19.40
68440;BMP180;55421;51.600;5.718;2023-08-24T06:30:03;225357.20;;;19.40
68440;BMP180;55421;51.600;5.718;2023-08-24T06:32:30;225391.20;;;19.50
68440;BMP180;55421;51.600;5.718;2023-08-24T06:34:56;225427.20;;;19.54
68440;BMP180;55421;51.600;5.718;2023-08-24T06:37:23;225475.00;;;19.60
68440;BMP180;55421;51.600;5.718;2023-08-24T06:39:49;225519.59;;;19.70
68440;BMP180;55421;51.600;5.718;2023-08-24T06:42:16;225556.80;;;19.80
68440;BMP180;55421;51.600;5.718;2023-08-24T06:44:42;225596.80;;;19.86
68440;BMP180;55421;51.600;5.718;2023-08-24T06:47:09;225643.00;;;19.92
68440;BMP180;55421;51.600;5.718;2023-08-24T06:49:35;225683.00;;;20.00
68440;BMP180;55421;51.600;5.718;2023-08-24T06:52:02;225744.41;;;20.10
68440;BMP180;55421;51.600;5.718;2023-08-24T06:54:29;225804.00;;;20.20
68440;BMP180;55421;51.600;5.718;2023-08-24T06:56:56;225855.00;;;20.30
68440;BMP180;55421;51.600;5.718;2023-08-24T06:59:22;225899.80;;;20.40
68440;BMP180;55421;51.600;5.718;2023-08-24T07:01:48;225956.00;;;20.50
68440;BMP180;55421;51.600;5.718;2023-08-24T07:04:15;226069.20;;;20.60
68440;BMP180;55421;51.600;5.718;2023-08-24T07:06:41;226546.20;;;20.70
68440;BMP180;55421;51.600;5.718;2023-08-24T07:09:09;228083.59;;;20.80
68440;BMP180;55421;51.600;5.718;2023-08-24T07:11:36;230986.41;;;20.88
68440;BMP180;55421;51.600;5.718;2023-08-24T07:14:02;231211.80;;;20.94
68440;BMP180;55421;51.600;5.718;2023-08-24T07:16:29;233213.80;;;21.00
68440;BMP180;55421;51.600;5.718;2023-08-24T07:18:55;234665.80;;;21.10
68440;BMP180;55421;51.600;5.718;2023-08-24T07:21:22;193888.41;;;21.20
68440;BMP180;55421;51.600;5.718;2023-08-24T07:23:48;239330.20;;;21.30
68440;BMP180;55421;51.600;5.718;2023-08-24T07:26:15;241861.41;;;21.34
68440;BMP180;55421;51.600;5.718;2023-08-24T07:28:41;240618.80;;;21.40
68440;BMP180;55421;51.600;5.718;2023-08-24T07:31:09;243129.00;;;21.50
68440;BMP180;55421;51.600;5.718;2023-08-24T07:33:40;193758.80;;;21.60
68440;BMP180;55421;51.600;5.718;2023-08-24T07:36:07;242091.80;;;21.60
68440;BMP180;55421;51.600;5.718;2023-08-24T07:38:34;243307.20;;;21.70
68440;BMP180;55421;51.600;5.718;2023-08-24T07:41:00;241608.80;;;21.80
68440;BMP180;55421;51.600;5.718;2023-08-24T07:43:27;241021.41;;;21.90
68440;BMP180;55421;51.600;5.718;2023-08-24T07:45:53;241448.59;;;22.00
68440;BMP180;55421;51.600;5.718;2023-08-24T07:48:21;242495.41;;;22.10
68440;BMP180;55421;51.600;5.718;2023-08-24T07:50:47;241233.41;;;22.20
68440;BMP180;55421;51.600;5.718;2023-08-24T07:53:14;242343.00;;;22.24
68440;BMP180;55421;51.600;5.718;2023-08-24T07:55:42;239286.20;;;22.30
68440;BMP180;55421;51.600;5.718;2023-08-24T07:58:09;239260.20;;;22.40
68440;BMP180;55421;51.600;5.718;2023-08-24T08:00:35;238531.20;;;22.50
68440;BMP180;55421;51.600;5.718;2023-08-24T08:03:02;236235.20;;;22.58
68440;BMP180;55421;51.600;5.718;2023-08-24T08:05:29;235302.80;;;22.60
68440;BMP180;55421;51.600;5.718;2023-08-24T08:07:55;236685.59;;;22.70
68440;BMP180;55421;51.600;5.718;2023-08-24T08:10:22;236035.80;;;22.80
68440;BMP180;55421;51.600;5.718;2023-08-24T08:12:48;232632.80;;;22.80
68440;BMP180;55421;51.600;5.718;2023-08-24T08:15:15;230569.80;;;22.90
68440;BMP180;55421;51.600;5.718;2023-08-24T08:17:41;230348.80;;;23.00
68440;BMP180;55421;51.600;5.718;2023-08-24T08:20:09;227756.80;;;23.00
68440;BMP180;55421;51.600;5.718;2023-08-24T08:22:36;228112.41;;;23.10
68440;BMP180;55421;51.600;5.718;2023-08-24T08:25:06;227798.80;;;23.20
68440;BMP180;55421;51.600;5.718;2023-08-24T08:27:33;227780.20;;;23.30
68440;BMP180;55421;51.600;5.718;2023-08-24T08:29:59;227769.20;;;23.36
68440;BMP180;55421;51.600;5.718;2023-08-24T08:32:26;227807.80;;;23.44
68440;BMP180;55421;51.600;5.718;2023-08-24T08:34:54;227710.20;;;23.50
68440;BMP180;55421;51.600;5.718;2023-08-24T08:37:23;227751.41;;;23.60
68440;BMP180;55421;51.600;5.718;2023-08-24T08:39:50;227821.00;;;23.80
68440;BMP180;55421;51.600;5.718;2023-08-24T08:42:16;227891.00;;;23.90
68440;BMP180;55421;51.600;5.718;2023-08-24T08:44:45;227940.00;;;24.00
68440;BMP180;55421;51.600;5.718;2023-08-24T08:47:14;227968.00;;;24.04
68440;BMP180;55421;51.600;5.718;2023-08-24T08:49:48;228003.20;;;24.10
68440;BMP180;55421;51.600;5.718;2023-08-24T08:52:15;228028.80;;;24.16
68440;BMP180;55421;51.600;5.718;2023-08-24T08:54:42;228062.59;;;24.20
68440;BMP180;55421;51.600;5.718;2023-08-24T08:57:09;228097.20;;;24.28
68440;BMP180;55421;51.600;5.718;2023-08-24T08:59:37;228114.59;;;24.30
68440;BMP180;55421;51.600;5.718;2023-08-24T09:02:03;228141.20;;;24.32
68440;BMP180;55421;51.600;5.718;2023-08-24T09:04:32;228169.59;;;24.40
68440;BMP180;55421;51.600;5.718;2023-08-24T09:06:59;228193.20;;;24.40
68440;BMP180;55421;51.600;5.718;2023-08-24T09:09:34;228215.20;;;24.50
68440;BMP180;55421;51.600;5.718;2023-08-24T09:12:01;228246.20;;;24.50
68440;BMP180;55421;51.600;5.718;2023-08-24T09:14:28;228266.20;;;24.60
68440;BMP180;55421;51.600;5.718;2023-08-24T09:16:54;228300.20;;;24.60
68440;BMP180;55421;51.600;5.718;2023-08-24T09:19:29;228331.59;;;24.70
68440;BMP180;55421;51.600;5.718;2023-08-24T09:22:02;228354.00;;;24.70
68440;BMP180;55421;51.600;5.718;2023-08-24T09:24:34;228377.20;;;24.80
68440;BMP180;55421;51.600;5.718;2023-08-24T09:27:20;228398.41;;;24.80
68440;BMP180;55421;51.600;5.718;2023-08-24T09:29:53;228429.41;;;24.90
68440;BMP180;55421;51.600;5.718;2023-08-24T09:32:31;228458.59;;;24.90
68440;BMP180;55421;51.600;5.718;2023-08-24T09:35:09;228492.20;;;25.00
68440;BMP180;55421;51.600;5.718;2023-08-24T09:37:37;228528.59;;;25.00
68440;BMP180;55421;51.600;5.718;2023-08-24T09:40:07;228583.20;;;25.10
68440;BMP180;55421;51.600;5.718;2023-08-24T09:42:39;228617.41;;;25.20
68440;BMP180;55421;51.600;5.718;2023-08-24T09:45:16;228654.20;;;25.30
68440;BMP180;55421;51.600;5.718;2023-08-24T09:47:50;228707.80;;;25.32
68440;BMP180;55421;51.600;5.718;2023-08-24T09:50:18;228752.00;;;25.40
68440;BMP180;55421;51.600;5.718;2023-08-24T09:52:47;228798.41;;;25.50
68440;BMP180;55421;51.600;5.718;2023-08-24T09:55:19;228837.00;;;25.60
68440;BMP180;55421;51.600;5.718;2023-08-24T09:57:53;228872.20;;;25.60
68440;BMP180;55421;51.600;5.718;2023-08-24T10:00:22;228902.59;;;25.70
68440;BMP180;55421;51.600;5.718;2023-08-24T10:02:52;228930.80;;;25.70
68440;BMP180;55421;51.600;5.718;2023-08-24T10:05:23;228935.41;;;25.74
68440;BMP180;55421;51.600;5.718;2023-08-24T10:07:54;228932.41;;;25.76
68440;BMP180;55421;51.600;5.718;2023-08-24T10:10:25;228941.41;;;25.80
68440;BMP180;55421;51.600;5.718;2023-08-24T10:13:14;228962.00;;;25.80
68440;BMP180;55421;51.600;5.718;2023-08-24T10:15:43;228963.59;;;25.80
68440;BMP180;55421;51.600;5.718;2023-08-24T10:18:14;228954.00;;;25.80
68440;BMP180;55421;51.600;5.718;2023-08-24T10:20:41;228941.41;;;25.74
68440;BMP180;55421;51.600;5.718;2023-08-24T10:23:11;228931.00;;;25.70
68440;BMP180;55421;51.600;5.718;2023-08-24T10:25:39;228923.41;;;25.70
68440;BMP180;55421;51.600;5.718;2023-08-24T10:28:08;228932.41;;;25.70
68440;BMP180;55421;51.600;5.718;2023-08-24T10:30:36;228941.41;;;25.72
68440;BMP180;55421;51.600;5.718;2023-08-24T10:33:05;228929.41;;;25.70
68440;BMP180;55421;51.600;5.718;2023-08-24T10:35:33;228899.41;;;25.70
68440;BMP180;55421;51.600;5.718;2023-08-24T10:37:59;228875.41;;;25.68
68440;BMP180;55421;51.600;5.718;2023-08-24T10:40:34;228869.00;;;25.60
68440;BMP180;55421;51.600;5.718;2023-08-24T10:43:05;228857.80;;;25.60
68440;BMP180;55421;51.600;5.718;2023-08-24T10:46:01;228838.59;;;25.60
68440;BMP180;55421;51.600;5.718;2023-08-24T10:48:57;228806.41;;;25.50
68440;BMP180;55421;51.600;5.718;2023-08-24T10:51:45;228790.41;;;25.50
68440;BMP180;55421;51.600;5.718;2023-08-24T10:54:14;228762.41;;;25.44
68440;BMP180;55421;51.600;5.718;2023-08-24T10:56:52;228731.41;;;25.40
68440;BMP180;55421;51.600;5.718;2023-08-24T10:59:20;228693.80;;;25.30
68440;BMP180;55421;51.600;5.718;2023-08-24T11:04:18;228614.20;;;25.20
68440;BMP180;55421;51.600;5.718;2023-08-24T11:06:58;228581.59;;;25.10
68440;BMP180;55421;51.600;5.718;2023-08-24T11:09:26;228543.00;;;25.10
68440;BMP180;55421;51.600;5.718;2023-08-24T11:12:02;228535.00;;;25.00
68440;BMP180;55421;51.600;5.718;2023-08-24T11:14:30;228536.59;;;25.00
68440;BMP180;55421;51.600;5.718;2023-08-24T11:17:00;228547.80;;;25.08
68440;BMP180;55421;51.600;5.718;2023-08-24T11:19:29;228581.59;;;25.10
68440;BMP180;55421;51.600;5.718;2023-08-24T11:22:04;228628.59;;;25.20
68440;BMP180;55421;51.600;5.718;2023-08-24T11:24:33;228689.00;;;25.30
68440;BMP180;55421;51.600;5.718;2023-08-24T11:27:03;228745.41;;;25.40
68440;BMP180;55421;51.600;5.718;2023-08-24T11:29:30;228816.00;;;25.54
68440;BMP180;55421;51.600;5.718;2023-08-24T11:31:57;228869.00;;;25.60
68440;BMP180;55421;51.600;5.718;2023-08-24T11:34:24;228923.00;;;25.70
68440;BMP180;55421;51.600;5.718;2023-08-24T11:36:50;228958.80;;;25.80
68440;BMP180;55421;51.600;5.718;2023-08-24T11:39:19;228965.20;;;25.80
68440;BMP180;55421;51.600;5.718;2023-08-24T11:42:05;228944.41;;;25.72
68440;BMP180;55421;51.600;5.718;2023-08-24T11:44:46;228899.41;;;25.70
68440;BMP180;55421;51.600;5.718;2023-08-24T11:47:14;228897.80;;;25.70
68440;BMP180;55421;51.600;5.718;2023-08-24T11:49:42;228902.59;;;25.70
68440;BMP180;55421;51.600;5.718;2023-08-24T11:52:08;228926.20;;;25.70
68440;BMP180;55421;51.600;5.718;2023-08-24T11:54:38;228949.20;;;25.80
68440;BMP180;55421;51.600;5.718;2023-08-24T11:57:08;228950.80;;;25.80
68440;BMP180;55421;51.600;5.718;2023-08-24T11:59:39;228921.80;;;25.70
68440;BMP180;55421;51.600;5.718;2023-08-24T12:02:08;228893.00;;;25.70
68440;BMP180;55421;51.600;5.718;2023-08-24T12:04:41;228870.59;;;25.60
68440;BMP180;55421;51.600;5.718;2023-08-24T12:07:12;228820.20;;;25.60
68440;BMP180;55421;51.600;5.718;2023-08-24T12:09:40;228803.20;;;25.50
68440;BMP180;55421;51.600;5.718;2023-08-24T12:12:13;228793.59;;;25.50
68440;BMP180;55421;51.600;5.718;2023-08-24T12:14:41;228821.20;;;25.60
68440;BMP180;55421;51.600;5.718;2023-08-24T12:17:09;228853.00;;;25.60
68440;BMP180;55421;51.600;5.718;2023-08-24T12:19:36;228896.20;;;25.70
68440;BMP180;55421;51.600;5.718;2023-08-24T12:22:02;228949.20;;;25.80
68440;BMP180;55421;51.600;5.718;2023-08-24T12:24:29;228974.80;;;25.80
68440;BMP180;55421;51.600;5.718;2023-08-24T12:26:56;228986.00;;;25.82
68440;BMP180;55421;51.600;5.718;2023-08-24T12:29:24;229021.20;;;25.90
68440;BMP180;55421;51.600;5.718;2023-08-24T12:31:51;229071.80;;;26.00
68440;BMP180;55421;51.600;5.718;2023-08-24T12:34:17;229103.00;;;26.00
68440;BMP180;55421;51.600;5.718;2023-08-24T12:36:44;229109.59;;;26.02
68440;BMP180;55421;51.600;5.718;2023-08-24T12:39:12;229113.00;;;26.10
68440;BMP180;55421;51.600;5.718;2023-08-24T12:41:39;229117.80;;;26.10
68440;BMP180;55421;51.600;5.718;2023-08-24T12:44:05;229111.20;;;26.08
68440;BMP180;55421;51.600;5.718;2023-08-24T12:46:35;229119.59;;;26.10
68440;BMP180;55421;51.600;5.718;2023-08-24T12:49:02;229124.41;;;26.10
68440;BMP180;55421;51.600;5.718;2023-08-24T12:51:29;229132.41;;;26.10
68440;BMP180;55421;51.600;5.718;2023-08-24T12:53:55;229111.59;;;26.10
68440;BMP180;55421;51.600;5.718;2023-08-24T12:56:22;229090.20;;;26.00
68440;BMP180;55421;51.600;5.718;2023-08-24T12:58:48;229059.59;;;26.00
68440;BMP180;55421;51.600;5.718;2023-08-24T13:01:15;229010.00;;;25.90
68440;BMP180;55421;51.600;5.718;2023-08-24T13:03:41;228960.41;;;25.80
68440;BMP180;55421;51.600;5.718;2023-08-24T13:06:08;228926.20;;;25.70
68440;BMP180;55421;51.600;5.718;2023-08-24T13:08:34;228891.41;;;25.70
68440;BMP180;55421;51.600;5.718;2023-08-24T13:11:01;228885.00;;;25.70
68440;BMP180;55421;51.600;5.718;2023-08-24T13:13:27;228856.20;;;25.60
68440;BMP180;55421;51.600;5.718;2023-08-24T13:15:54;228841.80;;;25.60
68440;BMP180;55421;51.600;5.718;2023-08-24T13:18:21;228822.80;;;25.60
68440;BMP180;55421;51.600;5.718;2023-08-24T13:20:47;228815.41;;;25.50
68440;BMP180;55421;51.600;5.718;2023-08-24T13:23:14;228795.20;;;25.50
68440;BMP180;55421;51.600;5.718;2023-08-24T13:25:40;228774.80;;;25.50
68440;BMP180;55421;51.600;5.718;2023-08-24T13:28:07;228749.80;;;25.40
68440;BMP180;55421;51.600;5.718;2023-08-24T13:30:33;228714.20;;;25.38
68440;BMP180;55421;51.600;5.718;2023-08-24T13:33:00;228690.20;;;25.30
68440;BMP180;55421;51.600;5.718;2023-08-24T13:35:27;228659.00;;;25.30
68440;BMP180;55421;51.600;5.718;2023-08-24T13:37:53;228633.41;;;25.20
68440;BMP180;55421;51.600;5.718;2023-08-24T13:40:20;228609.59;;;25.20
68440;BMP180;55421;51.600;5.718;2023-08-24T13:42:47;228596.00;;;25.12
68440;BMP180;55421;51.600;5.718;2023-08-24T13:45:13;228594.41;;;25.10
68440;BMP180;55421;51.600;5.718;2023-08-24T13:47:40;228596.00;;;25.10
68440;BMP180;55421;51.600;5.718;2023-08-24T13:50:07;228596.00;;;25.10
68440;BMP180;55421;51.600;5.718;2023-08-24T13:52:34;228597.41;;;25.10
68440;BMP180;55421;51.600;5.718;2023-08-24T13:55:00;228591.20;;;25.10
68440;BMP180;55421;51.600;5.718;2023-08-24T13:57:29;228573.59;;;25.10
68440;BMP180;55421;51.600;5.718;2023-08-24T13:59:56;228541.41;;;25.10
68440;BMP180;55421;51.600;5.718;2023-08-24T14:02:22;228512.20;;;25.00
68440;BMP180;55421;51.600;5.718;2023-08-24T14:04:49;228481.00;;;25.00
68440;BMP180;55421;51.600;5.718;2023-08-24T14:07:15;228466.59;;;24.90